Latest Weather Observations for Essendon Airport

IDV60901

Issued at 1:21 am EDT Monday 26 October 2020 (issued every 10 minutes, with the page automatically refreshed every 10 minutes)

About weather observations | Map of Melbourne area stations | Latest observations for Melbourne area | Other Formats
Station Details ID: 086038 Name: ESSENDON AIRPORT Lat: -37.73 Lon: 144.91 Height: 78.4 m
Data from the previous 72 hours. | See also: Recent months at Essendon Airport
Date/Time
EDT
Temp
°C
App
Temp
°C
Dew
Point
°C
Rel
Hum
%
Delta-T
°C
Wind Press
QNH
hPa
Press
MSL
hPa
Rain since
9am
mm
Dir  Spd
km/h
Gust
km/h
Spd
kts
Gust
kts
26/01:00am 9.7 3.7 5.3 74 2.0 SE 26 35 14 19 1023.3 1023.3 0.0
26/12:30am 9.9 3.2 5.5 74 2.0 ESE 30 46 16 25 1023.4 1023.4 0.0
26/12:00am 10.2 3.1 5.4 72 2.2 ESE 32 46 17 25 1023.4 1023.4 0.0
 
Date/Time
EDT
Temp
°C
App
Temp
°C
Dew
Point
°C
Rel
Hum
%
Delta-T
°C
Wind Press
QNH
hPa
Press
MSL
hPa
Rain since
9am
mm
Dir  Spd
km/h
Gust
km/h
Spd
kts
Gust
kts
25/11:35pm 10.0 3.7 5.6 74 2.0 SE 28 46 15 25 1023.5 1023.5 0.0
25/11:30pm 9.9 2.8 5.5 74 2.0 SE 32 43 17 23 1023.6 1023.6 0.0
25/11:00pm 9.9 4.0 5.7 75 1.9 SE 26 39 14 21 1023.8 1023.8 0.0
25/10:54pm 10.0 3.7 5.8 75 1.9 SE 28 46 15 25 1023.9 1023.9 0.0
25/10:30pm 10.0 4.4 5.6 74 2.0 SE 24 33 13 18 1023.9 1023.9 0.0
25/10:00pm 10.3 4.7 5.3 71 2.3 SE 24 35 13 19 1023.8 1023.8 0.0
25/09:30pm 10.6 4.1 4.9 68 2.6 SE 28 39 15 21 1023.6 1023.6 0.0
25/09:00pm 10.6 3.4 4.9 68 2.6 SE 32 50 17 27 1023.3 1023.3 0.0
25/08:47pm 10.7 3.9 5.3 69 2.5 SE 30 48 16 26 1023.3 1023.3 0.0
25/08:30pm 10.8 4.0 4.9 67 2.7 SE 30 41 16 22 1023.2 1023.2 0.0
25/08:00pm 11.4 4.2 5.1 65 2.9 ESE 32 43 17 23 1022.8 1022.8 0.0
25/07:30pm 11.5 5.5 5.2 65 2.9 SE 26 41 14 22 1022.4 1022.4 0.0
25/07:00pm 11.8 5.0 5.0 63 3.1 SE 30 44 16 24 1022.0 1022.0 0.0
25/06:30pm 12.0 4.9 5.6 65 3.0 SE 32 43 17 23 1021.5 1021.5 0.0
25/06:04pm 12.5 5.7 5.0 60 3.5 SE 30 48 16 26 1021.2 1021.2 0.0
25/06:00pm 12.8 6.1 5.5 61 3.4 SE 30 39 16 21 1021.2 1021.2 0.0
25/05:34pm 12.5 5.6 4.7 59 3.6 SE 30 50 16 27 1021.1 1021.1 0.0
25/05:30pm 12.7 5.9 5.1 60 3.5 SE 30 44 16 24 1021.0 1021.0 0.0
25/05:00pm 11.9 4.7 6.0 67 2.8 SE 33 44 18 24 1021.1 1021.1 0.0
25/04:30pm 12.3 5.0 5.5 63 3.2 SE 33 50 18 27 1020.7 1020.7 0.0
25/04:00pm 11.6 5.1 6.3 70 2.5 SE 30 48 16 26 1020.7 1020.7 0.0
25/03:30pm 11.8 6.0 8.1 78 1.8 SSE 28 37 15 20 1020.6 1020.6 0.0
25/03:00pm 13.0 6.6 7.0 67 2.9 SE 30 44 16 24 1020.6 1020.6 0.0
25/02:44pm 12.6 5.7 6.6 67 2.9 SE 32 50 17 27 1020.7 1020.7 0.0
25/02:30pm 11.8 4.3 6.3 69 2.6 SE 35 46 19 25 1020.7 1020.7 0.0
25/02:20pm 11.4 3.9 6.1 70 2.5 SSE 35 54 19 29 1020.7 1020.7 0.0
25/02:00pm 12.7 6.9 6.1 64 3.1 SSE 26 35 14 19 1020.4 1020.4 0.0
25/01:30pm 12.6 6.0 4.3 57 3.8 SSE 28 39 15 21 1020.4 1020.4 0.0
25/01:00pm 12.4 5.4 5.8 64 3.1 S 32 43 17 23 1020.3 1020.3 0.0
25/12:30pm 12.6 5.1 3.3 53 4.1 SSE 32 41 17 22 1020.5 1020.5 0.0
25/12:00pm 13.4 6.9 4.6 55 4.0 S 28 39 15 21 1020.7 1020.7 0.0
25/11:30am 12.2 4.5 2.4 51 4.3 S 32 43 17 23 1020.8 1020.8 0.0
25/11:00am 11.9 5.3 1.8 50 4.3 S 26 41 14 22 1020.9 1020.9 0.0
25/10:30am 11.7 4.5 0.8 47 4.6 SSE 28 41 15 22 1021.0 1021.0 0.0
25/10:02am 11.4 3.3 1.1 49 4.3 S 33 52 18 28 1020.9 1020.9 0.0
25/10:00am 12.0 4.4 2.7 53 4.1 SSE 32 44 17 24 1020.9 1020.9 0.0
25/09:37am 10.9 2.6 0.0 47 4.4 SSE 33 59 18 32 1020.8 1020.8 0.0
25/09:30am 11.2 3.4 1.5 51 4.1 SSE 32 44 17 24 1020.7 1020.7 0.0
25/09:18am 11.0 3.0 0.7 49 4.3 SSE 32 50 17 27 1020.7 1020.7 0.0
25/09:00am 11.4 3.3 0.8 48 4.4 SSE 33 50 18 27 1020.4 1020.4 4.6
25/08:30am 10.4 2.7 -0.1 48 4.2 SE 30 43 16 23 1020.0 1020.0 4.6
25/08:00am 9.7 3.2 2.8 62 3.0 SSE 26 39 14 21 1019.5 1019.5 4.6
25/07:30am 9.4 1.6 2.0 60 3.1 SSE 32 48 17 26 1019.0 1019.0 4.6
25/07:18am 9.2 2.1 1.6 59 3.2 SSE 28 46 15 25 1018.7 1018.7 4.6
25/07:00am 8.7 2.6 2.7 66 2.5 SE 24 35 13 19 1018.4 1018.4 4.6
25/06:30am 8.6 0.7 2.0 63 2.8 SSE 33 48 18 26 1017.9 1017.8 4.6
25/06:08am 8.8 2.5 4.0 72 2.1 SSE 26 54 14 29 1017.5 1017.4 4.6
25/06:00am 8.6 3.8 4.4 75 1.8 SE 19 32 10 17 1017.3 1017.2 4.6
25/05:30am 8.2 0.5 3.5 72 2.0 S 33 43 18 23 1017.0 1016.9 4.6
25/05:01am 9.1 2.3 3.1 66 2.6 S 28 46 15 25 1016.7 1016.6 4.6
25/05:00am 9.1 1.9 3.1 66 2.6 S 30 46 16 25 1016.7 1016.6 4.6
25/04:43am 9.3 2.8 4.5 72 2.1 S 28 48 15 26 1016.3 1016.2 4.6
25/04:30am 9.1 2.3 2.9 65 2.7 S 28 41 15 22 1016.2 1016.1 4.6
25/04:00am 9.7 2.6 3.4 65 2.7 S 30 46 16 25 1015.9 1015.8 4.6
25/03:30am 10.0 3.4 4.4 68 2.5 S 28 41 15 22 1015.5 1015.4 4.6
25/03:00am 10.0 3.6 5.0 71 2.3 S 28 41 15 22 1015.2 1015.1 4.6
25/02:30am 9.8 3.8 5.2 73 2.1 S 26 35 14 19 1015.0 1015.0 4.6
25/02:00am 10.0 3.1 4.8 70 2.3 S 30 46 16 25 1015.0 1015.0 4.6
25/01:30am 10.2 4.3 6.0 75 1.9 S 26 35 14 19 1014.9 1014.9 4.6
25/01:00am 10.1 5.1 6.4 78 1.7 SSW 22 33 12 18 1014.8 1014.8 4.6
25/12:30am 8.7 3.6 7.6 93 0.5 SW 24 35 13 19 1014.5 1014.5 4.6
25/12:00am 8.8 4.4 7.6 92 0.6 SW 20 30 11 16 1014.4 1014.4 4.4
 
Date/Time
EDT
Temp
°C
App
Temp
°C
Dew
Point
°C
Rel
Hum
%
Delta-T
°C
Wind Press
QNH
hPa
Press
MSL
hPa
Rain since
9am
mm
Dir  Spd
km/h
Gust
km/h
Spd
kts
Gust
kts
24/11:30pm 8.4 4.5 7.3 93 0.5 SW 17 22 9 12 1014.2 1014.2 4.4
24/11:00pm 8.9 4.5 7.4 90 0.7 SW 20 28 11 15 1014.2 1014.2 4.4
24/10:30pm 9.6 5.3 6.9 83 1.3 SW 19 35 10 19 1014.2 1014.2 4.2
24/10:00pm 9.8 5.2 5.6 75 1.9 SW 19 24 10 13 1014.1 1014.1 4.2
24/09:30pm 9.6 5.8 5.8 77 1.7 SW 15 20 8 11 1013.9 1013.9 4.2
24/09:00pm 10.3 5.8 5.9 74 2.0 SW 19 22 10 12 1013.6 1013.6 4.2
24/08:30pm 10.4 5.2 5.4 71 2.3 SSW 22 30 12 16 1013.2 1013.2 4.0
24/08:00pm 10.5 5.0 5.7 72 2.2 S 24 33 13 18 1012.7 1012.7 4.0
24/07:30pm 11.0 3.5 4.7 65 2.9 S 33 44 18 24 1012.2 1012.2 4.0
24/07:01pm 11.7 4.2 4.2 60 3.4 S 33 54 18 29 1011.7 1011.7 4.0
24/07:00pm 11.8 4.3 4.5 61 3.3 S 33 50 18 27 1011.7 1011.7 4.0
24/06:30pm 12.2 3.9 4.2 58 3.6 S 37 50 20 27 1011.4 1011.4 4.0
24/06:16pm 12.5 4.3 4.7 59 3.6 S 37 56 20 30 1011.1 1011.1 4.0
24/06:00pm 12.6 4.8 5.1 60 3.5 S 35 48 19 26 1011.0 1011.0 4.0
24/05:30pm 12.2 4.3 6.0 66 2.9 S 37 59 20 32 1010.5 1010.5 4.0
24/05:21pm 12.2 3.8 5.8 65 3.0 S 39 59 21 32 1010.3 1010.3 4.0
24/05:00pm 12.2 3.9 6.3 67 2.8 S 39 54 21 29 1010.1 1010.1 4.0
24/04:30pm 12.5 5.2 8.6 77 1.9 S 37 52 20 28 1009.8 1009.8 4.0
24/04:13pm 12.7 6.0 8.2 74 2.2 S 33 52 18 28 1009.6 1009.6 4.0
24/04:00pm 13.1 6.9 9.2 77 2.0 S 32 43 17 23 1009.5 1009.5 4.0
24/03:30pm 12.8 6.5 9.6 81 1.6 S 33 46 18 25 1009.4 1009.4 4.0
24/03:00pm 14.5 8.1 9.3 71 2.7 S 33 48 18 26 1009.2 1009.2 4.0
24/02:30pm 13.8 8.4 9.5 75 2.2 SSW 28 39 15 21 1009.1 1009.1 4.0
24/02:05pm 13.6 8.0 8.7 72 2.5 SSW 28 46 15 25 1008.9 1008.9 4.0
24/02:00pm 13.9 9.3 9.7 76 2.2 SSW 24 35 13 19 1008.9 1008.9 4.0
24/01:30pm 12.8 7.8 9.4 80 1.7 S 26 33 14 18 1008.5 1008.5 4.0
24/01:00pm 13.8 9.9 9.3 74 2.3 S 20 33 11 18 1008.4 1008.4 4.0
24/12:30pm 12.8 8.9 9.4 80 1.7 S 20 30 11 16 1008.5 1008.5 4.0
24/12:00pm 11.7 8.5 9.9 89 0.9 S 17 24 9 13 1008.5 1008.5 4.0
24/11:30am 11.2 8.0 10.1 93 0.6 SSW 17 26 9 14 1008.4 1008.4 4.0
24/11:09am 11.1 7.0 10.0 93 0.6 S 22 35 12 19 1008.2 1008.2 3.4
24/11:00am 11.1 6.2 10.0 93 0.6 S 26 39 14 21 1008.2 1008.2 3.2
24/10:30am 11.3 6.3 10.8 97 0.3 SSW 28 43 15 23 1007.9 1007.9 3.0
24/10:08am 11.4 7.2 11.2 99 0.1 SSW 24 33 13 18 1007.7 1007.7 2.6
24/10:00am 11.4 6.8 11.2 99 0.1 SSW 26 37 14 20 1007.6 1007.6 2.4
24/09:35am 11.3 8.1 11.1 99 0.1 SSW 19 28 10 15 1007.5 1007.5 1.4
24/09:30am 11.3 8.4 11.1 99 0.1 SSW 17 24 9 13 1007.4 1007.4 1.2
24/09:00am 11.2 7.9 11.0 99 0.1 S 19 26 10 14 1007.2 1007.1 26.8
24/08:30am 11.3 6.7 11.1 99 0.1 SSW 26 33 14 18 1006.8 1006.7 26.0
24/08:00am 11.6 6.8 11.6 100 0.0 SSW 28 39 15 21 1006.3 1006.2 25.6
24/07:45am 11.9 7.9 11.9 100 0.0 SSW 24 35 13 19 1006.1 1006.0 25.4
24/07:30am 11.9 6.8 11.9 100 0.0 SSW 30 37 16 20 1005.8 1005.7 24.8
24/07:17am 12.3 8.1 12.3 100 0.0 SSW 26 37 14 20 1005.5 1005.4 24.0
24/07:00am 12.6 8.9 12.6 100 0.0 SSW 24 37 13 20 1005.1 1005.0 23.4
24/06:32am 12.7 8.2 12.7 100 0.0 SSW 28 39 15 21 1004.4 1004.3 23.0
24/06:30am 12.7 8.2 12.7 100 0.0 SSW 28 39 15 21 1004.4 1004.3 23.0
24/06:14am 13.1 9.1 13.1 100 0.0 SSW 26 35 14 19 1004.1 1004.0 22.4
24/06:00am 13.2 9.6 13.2 100 0.0 SSW 24 37 13 20 1003.9 1003.8 21.4
24/05:30am 13.3 9.8 13.3 100 0.0 SSW 24 33 13 18 1003.4 1003.3 20.4
24/05:04am 13.5 10.8 13.5 100 0.0 SW 20 30 11 16 1003.2 1003.1 18.2
24/05:00am 13.5 10.8 13.5 100 0.0 SW 20 30 11 16 1003.2 1003.1 17.8
24/04:47am 13.5 10.8 13.5 100 0.0 SW 20 28 11 15 1003.0 1002.9 17.0
24/04:34am 13.7 11.1 13.7 100 0.0 SSW 20 26 11 14 1003.2 1003.1 16.0
24/04:30am 13.7 11.3 13.7 100 0.0 SSW 19 26 10 14 1003.1 1003.0 15.8
24/04:00am 14.0 11.7 14.0 100 0.0 SW 19 24 10 13 1003.1 1003.0 14.4
24/03:30am 14.3 13.6 14.3 100 0.0 SW 11 15 6 8 1003.1 1003.0 12.2
24/03:00am 14.4 13.3 14.4 100 0.0 WSW 13 15 7 8 1003.0 1002.9 10.2
24/02:36am 14.5 13.9 14.5 100 0.0 WSW 11 15 6 8 1003.1 1003.0 9.4
24/02:31am 14.6 14.0 14.6 100 0.0 WSW 11 15 6 8 1003.1 1003.0 9.0
24/02:30am 14.5 13.5 14.5 100 0.0 WSW 13 15 7 8 1003.1 1003.0 9.0
24/02:00am 14.6 14.4 14.6 100 0.0 WSW 9 13 5 7 1003.5 1003.4 8.8
24/01:44am 14.7 13.7 14.7 100 0.0 WSW 13 17 7 9 1003.8 1003.7 8.2
24/01:43am 14.7 13.7 14.7 100 0.0 WSW 13 17 7 9 1003.8 1003.7 8.2
24/01:30am 14.7 13.7 14.7 100 0.0 WSW 13 17 7 9 1003.9 1003.8 8.0
24/01:00am 15.0 14.5 14.8 99 0.1 WSW 11 13 6 7 1003.8 1003.7 4.8
24/12:30am 15.1 14.6 14.9 99 0.1 WSW 11 13 6 7 1004.0 1003.9 3.0
24/12:00am 15.5 14.7 15.2 98 0.2 WSW 13 15 7 8 1004.1 1004.0 0.4
 
Date/Time
EDT
Temp
°C
App
Temp
°C
Dew
Point
°C
Rel
Hum
%
Delta-T
°C
Wind Press
QNH
hPa
Press
MSL
hPa
Rain since
9am
mm
Dir  Spd
km/h
Gust
km/h
Spd
kts
Gust
kts
23/11:33pm 15.8 15.8 15.3 97 0.3 WSW 9 11 5 6 1004.1 1004.0 0.4
23/11:30pm 15.8 15.8 15.3 97 0.3 WSW 9 11 5 6 1004.1 1004.0 0.4
23/11:25pm 15.8 15.8 15.3 97 0.3 WSW 9 11 5 6 1004.1 1004.0 0.4
23/11:00pm 15.7 16.3 15.2 97 0.3 SW 6 9 3 5 1004.1 1004.0 0.4
23/10:50pm 15.5 15.8 15.0 97 0.3 SW 7 9 4 5 1004.1 1004.0 0.4
23/10:30pm 15.2 15.0 14.6 96 0.3 WSW 9 11 5 6 1004.3 1004.2 0.4
23/10:00pm 15.5 15.8 14.9 96 0.3 SW 7 11 4 6 1004.4 1004.3 0.4
23/09:30pm 15.6 16.8 15.0 96 0.3 SW 2 6 1 3 1004.5 1004.4 0.4
23/09:00pm 15.7 16.2 15.1 96 0.3 SW 6 9 3 5 1004.4 1004.3 0.4
23/08:59pm 15.7 16.2 15.1 96 0.3 SW 6 9 3 5 1004.4 1004.3 0.4
23/08:38pm 15.8 15.7 15.0 95 0.5 SSW 9 13 5 7 1004.5 1004.4 0.4
23/08:30pm 15.9 15.9 15.1 95 0.5 S 9 13 5 7 1004.6 1004.5 0.4
23/08:02pm 16.7 17.3 15.9 95 0.5 SSE 7 11 4 6 1004.2 1004.1 0.4
23/08:00pm 16.7 17.3 15.9 95 0.5 SSE 7 11 4 6 1004.2 1004.1 0.4
23/07:30pm 17.2 17.6 16.2 94 0.6 SW 9 11 5 6 1004.2 1004.1 0.4
23/07:00pm 17.7 18.4 16.2 91 0.9 WSW 7 9 4 5 1004.3 1004.2 0.4
23/06:30pm 18.2 19.1 16.7 91 0.9 WSW 7 7 4 4 1004.3 1004.2 0.4
23/06:00pm 18.2 19.0 16.4 89 1.1 WSW 7 7 4 4 1004.4 1004.3 0.0
23/05:30pm 18.8 20.3 15.7 82 1.8 SSE 2 7 1 4 1004.2 1004.1 0.0
23/05:00pm 19.1 19.7 15.4 79 2.2 NNE 6 7 3 4 1004.1 1004.0 0.0
23/04:30pm 19.2 19.5 14.5 74 2.7 SSE 6 9 3 5 1004.5 1004.4 0.0
23/04:00pm 19.3 18.9 14.1 72 3.0 SE 9 13 5 7 1004.9 1004.8 0.0
23/03:30pm 19.5 19.1 14.1 71 3.1 ESE 9 13 5 7 1005.6 1005.5 0.0
23/03:00pm 19.2 18.1 13.2 68 3.4 SSW 11 15 6 8 1006.3 1006.2 0.0
23/02:30pm 19.9 19.6 13.4 66 3.7 SSE 7 11 4 6 1006.9 1006.8 0.0
23/02:00pm 19.5 20.0 13.9 70 3.2 SE 4 7 2 4 1007.2 1007.1 0.0
23/01:30pm 18.6 17.5 13.2 71 3.1 SE 11 17 6 9 1007.1 1007.0 0.0
23/01:00pm 19.2 18.5 13.2 68 3.4 S 9 15 5 8 1007.7 1007.7 0.0
23/12:30pm 18.7 17.8 13.8 73 2.8 SSW 11 15 6 8 1008.1 1008.1 0.0
23/12:00pm 17.2 16.1 13.1 77 2.3 SSW 11 15 6 8 1008.7 1008.7 0.0
23/11:30am 16.1 14.4 12.5 79 2.0 SSW 13 17 7 9 1008.9 1008.9 0.0
23/11:00am 15.9 14.4 13.0 83 1.6 SSW 13 19 7 10 1008.9 1008.9 0.0
23/10:30am 15.4 13.3 12.5 83 1.6 SW 15 17 8 9 1009.0 1009.0 0.0
23/10:00am 14.9 13.9 12.2 84 1.5 SSW 9 15 5 8 1008.8 1008.8 0.0
23/09:30am 14.1 13.5 11.8 86 1.2 S 6 9 3 5 1009.1 1009.1 0.0
23/09:00am 13.9 11.9 11.6 86 1.2 ENE 13 19 7 10 1008.9 1008.9 0.0
23/08:30am 14.0 12.1 11.7 86 1.2 SE 13 17 7 9 1008.7 1008.7 0.0
23/08:00am 13.3 11.6 11.2 87 1.1 ESE 11 13 6 7 1009.0 1009.0 0.0
23/07:30am 13.1 12.2 11.3 89 1.0 ESE 7 11 4 6 1009.3 1009.3 0.0
23/07:00am 12.4 10.2 10.8 90 0.8 NE 13 15 7 8 1008.7 1008.7 0.0
23/06:30am 12.1 10.3 10.7 91 0.7 WNW 11 13 6 7 1008.6 1008.6 0.0
23/06:00am 12.0 12.2 10.6 91 0.7 CALM 0 0 0 0 1008.9 1008.9 0.0
23/05:30am 12.3 12.5 10.5 89 0.9 CALM 0 6 0 3 1009.0 1009.0 0.0
23/05:00am 11.8 11.6 10.4 91 0.7 W 2 7 1 4 1008.9 1008.9 0.0
23/04:30am 11.7 10.4 10.1 90 0.8 W 7 9 4 5 1008.9 1008.9 0.0
23/04:00am 11.8 10.7 9.9 88 1.0 W 6 9 3 5 1009.5 1009.5 0.0
23/03:30am 11.8 10.5 9.9 88 1.0 W 7 9 4 5 1010.0 1010.0 0.0
23/03:00am 12.3 11.0 10.0 86 1.2 W 7 9 4 5 1010.4 1010.4 0.0
23/02:30am 12.4 10.8 10.1 86 1.2 W 9 13 5 7 1010.7 1010.7 0.0
23/02:00am 12.4 11.1 10.1 86 1.2 W 7 11 4 6 1010.8 1010.8 0.0
23/01:30am 12.6 11.0 10.3 86 1.2 W 9 11 5 6 1011.6 1011.6 0.0

Latest Capital City Observations: Canberra | Sydney | Melbourne | Brisbane | Adelaide | Perth | Hobart | Darwin

Other formats

Comma delimited format used in spreadsheet applications
http://www.bom.gov.au/fwo/IDV60901/IDV60901.95866.axf

JavaScript Object Notation format (JSON) in row-major order
http://www.bom.gov.au/fwo/IDV60901/IDV60901.95866.json

Data quality

Most of these data are generated automatically and are frequently updated. Quality checks on data are not normally performed. It is possible for incorrect values to appear. Refer to information at About Latest Weather Observations and please check the disclaimer before using these data.